sensor_id;sensor_type;location;lat;lon;timestamp;temperature;humidity
52895;DHT22;38759;53.396;6.722;2024-01-30T00:01:17;4.70;99.90
52895;DHT22;38759;53.396;6.722;2024-01-30T00:03:42;4.70;99.90
52895;DHT22;38759;53.396;6.722;2024-01-30T00:06:08;4.70;99.90
52895;DHT22;38759;53.396;6.722;2024-01-30T00:08:34;4.70;99.90
52895;DHT22;38759;53.396;6.722;2024-01-30T00:11:00;4.70;99.90
52895;DHT22;38759;53.396;6.722;2024-01-30T00:13:26;4.90;99.90
52895;DHT22;38759;53.396;6.722;2024-01-30T00:15:52;4.70;99.90
52895;DHT22;38759;53.396;6.722;2024-01-30T00:18:18;4.70;99.90
52895;DHT22;38759;53.396;6.722;2024-01-30T00:20:44;4.70;99.90
52895;DHT22;38759;53.396;6.722;2024-01-30T00:23:10;4.70;99.90
52895;DHT22;38759;53.396;6.722;2024-01-30T00:25:35;4.70;99.90
52895;DHT22;38759;53.396;6.722;2024-01-30T00:28:01;4.70;99.90
52895;DHT22;38759;53.396;6.722;2024-01-30T00:30:27;4.70;99.90
52895;DHT22;38759;53.396;6.722;2024-01-30T00:32:53;4.60;99.90
52895;DHT22;38759;53.396;6.722;2024-01-30T00:35:19;4.70;99.90
52895;DHT22;38759;53.396;6.722;2024-01-30T00:37:45;4.60;99.90
52895;DHT22;38759;53.396;6.722;2024-01-30T00:40:11;4.60;99.90
52895;DHT22;38759;53.396;6.722;2024-01-30T00:42:42;4.50;99.90
52895;DHT22;38759;53.396;6.722;2024-01-30T00:45:15;4.50;99.90
52895;DHT22;38759;53.396;6.722;2024-01-30T00:47:41;4.50;99.90
52895;DHT22;38759;53.396;6.722;2024-01-30T00:50:07;4.50;99.90
52895;DHT22;38759;53.396;6.722;2024-01-30T00:52:33;4.50;99.90
52895;DHT22;38759;53.396;6.722;2024-01-30T00:54:59;4.40;99.90
52895;DHT22;38759;53.396;6.722;2024-01-30T00:57:25;4.50;99.90
52895;DHT22;38759;53.396;6.722;2024-01-30T00:59:50;4.40;99.90
52895;DHT22;38759;53.396;6.722;2024-01-30T01:02:16;4.50;99.90
52895;DHT22;38759;53.396;6.722;2024-01-30T01:04:43;4.40;99.90
52895;DHT22;38759;53.396;6.722;2024-01-30T01:07:10;4.40;99.90
52895;DHT22;38759;53.396;6.722;2024-01-30T01:09:35;4.30;99.90
52895;DHT22;38759;53.396;6.722;2024-01-30T01:12:02;4.40;99.90
52895;DHT22;38759;53.396;6.722;2024-01-30T01:14:27;4.30;99.90
52895;DHT22;38759;53.396;6.722;2024-01-30T01:16:53;4.30;99.90
52895;DHT22;38759;53.396;6.722;2024-01-30T01:19:19;4.30;99.90
52895;DHT22;38759;53.396;6.722;2024-01-30T01:21:44;4.40;99.90
52895;DHT22;38759;53.396;6.722;2024-01-30T01:24:10;4.50;99.90
52895;DHT22;38759;53.396;6.722;2024-01-30T01:26:36;4.60;99.90
52895;DHT22;38759;53.396;6.722;2024-01-30T01:29:01;4.60;99.90
52895;DHT22;38759;53.396;6.722;2024-01-30T01:31:29;4.70;99.90
52895;DHT22;38759;53.396;6.722;2024-01-30T01:33:55;4.90;99.90
52895;DHT22;38759;53.396;6.722;2024-01-30T01:36:21;5.00;99.90
52895;DHT22;38759;53.396;6.722;2024-01-30T01:38:46;5.00;99.90
52895;DHT22;38759;53.396;6.722;2024-01-30T01:41:12;5.10;99.90
52895;DHT22;38759;53.396;6.722;2024-01-30T01:43:38;5.20;99.90
52895;DHT22;38759;53.396;6.722;2024-01-30T01:46:05;5.20;99.90
52895;DHT22;38759;53.396;6.722;2024-01-30T01:48:32;5.30;99.90
52895;DHT22;38759;53.396;6.722;2024-01-30T01:50:58;5.20;99.90
52895;DHT22;38759;53.396;6.722;2024-01-30T01:53:24;5.30;99.90
52895;DHT22;38759;53.396;6.722;2024-01-30T01:55:51;5.20;99.90
52895;DHT22;38759;53.396;6.722;2024-01-30T01:58:19;5.10;99.90
52895;DHT22;38759;53.396;6.722;2024-01-30T02:00:47;5.10;99.90
52895;DHT22;38759;53.396;6.722;2024-01-30T02:03:14;5.10;99.90
52895;DHT22;38759;53.396;6.722;2024-01-30T02:05:41;5.00;99.90
52895;DHT22;38759;53.396;6.722;2024-01-30T02:08:08;5.10;99.90
52895;DHT22;38759;53.396;6.722;2024-01-30T02:10:34;5.10;99.90
52895;DHT22;38759;53.396;6.722;2024-01-30T02:13:00;5.10;99.90
52895;DHT22;38759;53.396;6.722;2024-01-30T02:15:25;5.10;99.90
52895;DHT22;38759;53.396;6.722;2024-01-30T02:17:51;5.10;99.90
52895;DHT22;38759;53.396;6.722;2024-01-30T02:20:17;5.10;99.90
52895;DHT22;38759;53.396;6.722;2024-01-30T02:22:43;5.10;99.90
52895;DHT22;38759;53.396;6.722;2024-01-30T02:25:08;5.20;99.90
52895;DHT22;38759;53.396;6.722;2024-01-30T02:27:34;5.10;99.90
52895;DHT22;38759;53.396;6.722;2024-01-30T02:30:00;5.10;99.90
52895;DHT22;38759;53.396;6.722;2024-01-30T02:32:25;5.10;99.90
52895;DHT22;38759;53.396;6.722;2024-01-30T02:34:51;5.10;99.90
52895;DHT22;38759;53.396;6.722;2024-01-30T02:37:17;5.00;99.90
52895;DHT22;38759;53.396;6.722;2024-01-30T02:39:42;5.00;99.90
52895;DHT22;38759;53.396;6.722;2024-01-30T02:42:08;4.90;99.90
52895;DHT22;38759;53.396;6.722;2024-01-30T02:44:34;4.80;99.90
52895;DHT22;38759;53.396;6.722;2024-01-30T02:46:59;4.70;99.90
52895;DHT22;38759;53.396;6.722;2024-01-30T02:49:25;4.90;99.90
52895;DHT22;38759;53.396;6.722;2024-01-30T02:51:52;4.60;99.90
52895;DHT22;38759;53.396;6.722;2024-01-30T02:54:18;4.60;99.90
52895;DHT22;38759;53.396;6.722;2024-01-30T02:56:43;4.60;99.90
52895;DHT22;38759;53.396;6.722;2024-01-30T02:59:09;4.70;99.90
52895;DHT22;38759;53.396;6.722;2024-01-30T03:01:43;4.80;99.90
52895;DHT22;38759;53.396;6.722;2024-01-30T03:04:08;4.90;99.90
52895;DHT22;38759;53.396;6.722;2024-01-30T03:06:34;5.00;99.90
52895;DHT22;38759;53.396;6.722;2024-01-30T03:09:00;5.00;99.90
52895;DHT22;38759;53.396;6.722;2024-01-30T03:11:25;5.10;99.90
52895;DHT22;38759;53.396;6.722;2024-01-30T03:13:51;5.10;99.90
52895;DHT22;38759;53.396;6.722;2024-01-30T03:16:17;5.20;99.90
52895;DHT22;38759;53.396;6.722;2024-01-30T03:18:42;5.20;99.90
52895;DHT22;38759;53.396;6.722;2024-01-30T03:21:08;5.20;99.90
52895;DHT22;38759;53.396;6.722;2024-01-30T03:23:33;5.20;99.90
52895;DHT22;38759;53.396;6.722;2024-01-30T03:25:59;5.20;99.90
52895;DHT22;38759;53.396;6.722;2024-01-30T03:28:25;5.10;99.90
52895;DHT22;38759;53.396;6.722;2024-01-30T03:30:50;5.10;99.90
52895;DHT22;38759;53.396;6.722;2024-01-30T03:33:16;5.10;99.90
52895;DHT22;38759;53.396;6.722;2024-01-30T03:35:42;5.20;99.90
52895;DHT22;38759;53.396;6.722;2024-01-30T03:38:08;5.10;99.90
52895;DHT22;38759;53.396;6.722;2024-01-30T03:40:34;5.10;99.90
52895;DHT22;38759;53.396;6.722;2024-01-30T03:42:59;5.10;99.90
52895;DHT22;38759;53.396;6.722;2024-01-30T03:45:25;5.10;99.90
52895;DHT22;38759;53.396;6.722;2024-01-30T03:47:50;5.20;99.90
52895;DHT22;38759;53.396;6.722;2024-01-30T03:50:16;5.10;99.90
52895;DHT22;38759;53.396;6.722;2024-01-30T03:52:42;5.10;99.90
52895;DHT22;38759;53.396;6.722;2024-01-30T03:55:08;5.10;99.90
52895;DHT22;38759;53.396;6.722;2024-01-30T03:57:33;5.10;99.90
52895;DHT22;38759;53.396;6.722;2024-01-30T03:59:59;5.10;99.90
52895;DHT22;38759;53.396;6.722;2024-01-30T04:02:24;5.10;99.90
52895;DHT22;38759;53.396;6.722;2024-01-30T04:04:50;5.10;99.90
52895;DHT22;38759;53.396;6.722;2024-01-30T04:07:16;5.20;99.90
52895;DHT22;38759;53.396;6.722;2024-01-30T04:09:41;5.20;99.90
52895;DHT22;38759;53.396;6.722;2024-01-30T04:12:07;5.10;99.90
52895;DHT22;38759;53.396;6.722;2024-01-30T04:14:33;5.10;99.90
52895;DHT22;38759;53.396;6.722;2024-01-30T04:16:58;5.10;99.90
52895;DHT22;38759;53.396;6.722;2024-01-30T04:19:24;5.20;99.90
52895;DHT22;38759;53.396;6.722;2024-01-30T04:21:50;5.10;99.90
52895;DHT22;38759;53.396;6.722;2024-01-30T04:24:15;5.10;99.90
52895;DHT22;38759;53.396;6.722;2024-01-30T04:26:44;5.10;99.90
52895;DHT22;38759;53.396;6.722;2024-01-30T04:29:09;5.10;99.90
52895;DHT22;38759;53.396;6.722;2024-01-30T04:31:36;5.10;99.90
52895;DHT22;38759;53.396;6.722;2024-01-30T04:34:02;5.10;99.90
52895;DHT22;38759;53.396;6.722;2024-01-30T04:36:28;5.10;99.90
52895;DHT22;38759;53.396;6.722;2024-01-30T04:38:53;5.10;99.90
52895;DHT22;38759;53.396;6.722;2024-01-30T04:41:19;5.20;99.90
52895;DHT22;38759;53.396;6.722;2024-01-30T04:43:44;5.20;99.90
52895;DHT22;38759;53.396;6.722;2024-01-30T04:46:10;5.20;99.90
52895;DHT22;38759;53.396;6.722;2024-01-30T04:48:36;5.20;99.90
52895;DHT22;38759;53.396;6.722;2024-01-30T04:51:01;5.30;99.90
52895;DHT22;38759;53.396;6.722;2024-01-30T04:53:30;5.20;99.90
52895;DHT22;38759;53.396;6.722;2024-01-30T04:55:56;5.20;99.90
52895;DHT22;38759;53.396;6.722;2024-01-30T04:58:24;5.20;99.90
52895;DHT22;38759;53.396;6.722;2024-01-30T05:00:50;5.20;99.90
52895;DHT22;38759;53.396;6.722;2024-01-30T05:03:18;5.30;99.90
52895;DHT22;38759;53.396;6.722;2024-01-30T05:05:44;5.40;99.90
52895;DHT22;38759;53.396;6.722;2024-01-30T05:08:10;5.30;99.90
52895;DHT22;38759;53.396;6.722;2024-01-30T05:10:35;5.40;99.90
52895;DHT22;38759;53.396;6.722;2024-01-30T05:13:01;5.40;99.90
52895;DHT22;38759;53.396;6.722;2024-01-30T05:15:27;5.40;99.90
52895;DHT22;38759;53.396;6.722;2024-01-30T05:17:52;5.50;99.90
52895;DHT22;38759;53.396;6.722;2024-01-30T05:20:19;5.50;99.90
52895;DHT22;38759;53.396;6.722;2024-01-30T05:22:45;5.50;99.90
52895;DHT22;38759;53.396;6.722;2024-01-30T05:25:13;5.50;99.90
52895;DHT22;38759;53.396;6.722;2024-01-30T05:27:39;5.60;99.90
52895;DHT22;38759;53.396;6.722;2024-01-30T05:30:06;5.60;99.90
52895;DHT22;38759;53.396;6.722;2024-01-30T05:32:32;5.70;99.90
52895;DHT22;38759;53.396;6.722;2024-01-30T05:34:57;5.70;99.90
52895;DHT22;38759;53.396;6.722;2024-01-30T05:37:23;5.70;99.90
52895;DHT22;38759;53.396;6.722;2024-01-30T05:39:49;5.80;99.90
52895;DHT22;38759;53.396;6.722;2024-01-30T05:42:15;5.80;99.90
52895;DHT22;38759;53.396;6.722;2024-01-30T05:44:42;5.80;99.90
52895;DHT22;38759;53.396;6.722;2024-01-30T05:47:08;5.90;99.90
52895;DHT22;38759;53.396;6.722;2024-01-30T05:49:34;6.00;99.90
52895;DHT22;38759;53.396;6.722;2024-01-30T05:52:02;5.90;99.90
52895;DHT22;38759;53.396;6.722;2024-01-30T05:54:27;5.90;99.90
52895;DHT22;38759;53.396;6.722;2024-01-30T05:56:53;5.90;99.90
52895;DHT22;38759;53.396;6.722;2024-01-30T05:59:18;5.90;99.90
52895;DHT22;38759;53.396;6.722;2024-01-30T06:01:48;6.00;99.90
52895;DHT22;38759;53.396;6.722;2024-01-30T06:04:14;6.10;99.90
52895;DHT22;38759;53.396;6.722;2024-01-30T06:06:41;5.90;99.90
52895;DHT22;38759;53.396;6.722;2024-01-30T06:09:06;5.90;99.90
52895;DHT22;38759;53.396;6.722;2024-01-30T06:11:35;5.90;99.90
52895;DHT22;38759;53.396;6.722;2024-01-30T06:14:01;5.90;99.90
52895;DHT22;38759;53.396;6.722;2024-01-30T06:16:26;5.90;99.90
52895;DHT22;38759;53.396;6.722;2024-01-30T06:18:55;5.90;99.90
52895;DHT22;38759;53.396;6.722;2024-01-30T06:21:22;5.90;99.90
52895;DHT22;38759;53.396;6.722;2024-01-30T06:23:47;5.90;99.90
52895;DHT22;38759;53.396;6.722;2024-01-30T06:26:13;5.90;99.90
52895;DHT22;38759;53.396;6.722;2024-01-30T06:28:38;6.00;99.90
52895;DHT22;38759;53.396;6.722;2024-01-30T06:31:04;6.00;99.90
52895;DHT22;38759;53.396;6.722;2024-01-30T06:33:30;6.10;99.90
52895;DHT22;38759;53.396;6.722;2024-01-30T06:35:55;6.00;99.90
52895;DHT22;38759;53.396;6.722;2024-01-30T06:38:21;6.00;99.90
52895;DHT22;38759;53.396;6.722;2024-01-30T06:40:47;6.10;99.90
52895;DHT22;38759;53.396;6.722;2024-01-30T06:43:12;6.10;99.90
52895;DHT22;38759;53.396;6.722;2024-01-30T06:45:38;6.20;99.90
52895;DHT22;38759;53.396;6.722;2024-01-30T06:48:04;6.20;99.90
52895;DHT22;38759;53.396;6.722;2024-01-30T06:50:29;6.20;99.90
52895;DHT22;38759;53.396;6.722;2024-01-30T06:52:55;6.30;99.90
52895;DHT22;38759;53.396;6.722;2024-01-30T06:55:21;6.30;99.90
52895;DHT22;38759;53.396;6.722;2024-01-30T06:57:46;6.30;99.90
52895;DHT22;38759;53.396;6.722;2024-01-30T07:00:12;6.30;99.90
52895;DHT22;38759;53.396;6.722;2024-01-30T07:02:39;6.30;99.90
52895;DHT22;38759;53.396;6.722;2024-01-30T07:05:04;6.30;99.90
52895;DHT22;38759;53.396;6.722;2024-01-30T07:07:30;6.30;99.90
52895;DHT22;38759;53.396;6.722;2024-01-30T07:09:56;6.30;99.90
52895;DHT22;38759;53.396;6.722;2024-01-30T07:12:25;6.30;99.90
52895;DHT22;38759;53.396;6.722;2024-01-30T07:14:51;6.30;99.90
52895;DHT22;38759;53.396;6.722;2024-01-30T07:17:17;6.40;99.90
52895;DHT22;38759;53.396;6.722;2024-01-30T07:19:43;6.40;99.90
52895;DHT22;38759;53.396;6.722;2024-01-30T07:22:09;6.40;99.90
52895;DHT22;38759;53.396;6.722;2024-01-30T07:24:34;6.40;99.90
52895;DHT22;38759;53.396;6.722;2024-01-30T07:27:00;6.40;99.90
52895;DHT22;38759;53.396;6.722;2024-01-30T07:29:26;6.40;99.90
52895;DHT22;38759;53.396;6.722;2024-01-30T07:31:51;6.40;99.90
52895;DHT22;38759;53.396;6.722;2024-01-30T07:34:17;6.50;99.90
52895;DHT22;38759;53.396;6.722;2024-01-30T07:36:43;6.50;99.90
52895;DHT22;38759;53.396;6.722;2024-01-30T07:39:08;6.50;99.90
52895;DHT22;38759;53.396;6.722;2024-01-30T07:41:35;6.40;99.90
52895;DHT22;38759;53.396;6.722;2024-01-30T07:44:02;6.50;99.90
52895;DHT22;38759;53.396;6.722;2024-01-30T07:46:28;6.50;99.90
52895;DHT22;38759;53.396;6.722;2024-01-30T07:48:53;6.50;99.90
52895;DHT22;38759;53.396;6.722;2024-01-30T07:51:21;6.50;99.90
52895;DHT22;38759;53.396;6.722;2024-01-30T07:53:52;6.50;99.90
52895;DHT22;38759;53.396;6.722;2024-01-30T07:56:18;6.50;99.90
52895;DHT22;38759;53.396;6.722;2024-01-30T07:58:44;6.50;99.90
52895;DHT22;38759;53.396;6.722;2024-01-30T08:01:10;6.50;99.90
52895;DHT22;38759;53.396;6.722;2024-01-30T08:03:35;6.50;99.90
52895;DHT22;38759;53.396;6.722;2024-01-30T08:06:02;6.60;99.90
52895;DHT22;38759;53.396;6.722;2024-01-30T08:08:28;6.50;99.90
52895;DHT22;38759;53.396;6.722;2024-01-30T08:10:54;6.60;99.90
52895;DHT22;38759;53.396;6.722;2024-01-30T08:13:20;6.60;99.90
52895;DHT22;38759;53.396;6.722;2024-01-30T08:15:45;6.70;99.90
52895;DHT22;38759;53.396;6.722;2024-01-30T08:18:11;6.70;99.90
52895;DHT22;38759;53.396;6.722;2024-01-30T08:20:36;6.70;99.90
52895;DHT22;38759;53.396;6.722;2024-01-30T08:23:02;6.70;99.90
52895;DHT22;38759;53.396;6.722;2024-01-30T08:25:28;6.70;99.90
52895;DHT22;38759;53.396;6.722;2024-01-30T08:27:53;6.70;99.90
52895;DHT22;38759;53.396;6.722;2024-01-30T08:30:19;6.80;99.90
52895;DHT22;38759;53.396;6.722;2024-01-30T08:32:45;6.80;99.90
52895;DHT22;38759;53.396;6.722;2024-01-30T08:35:10;6.90;99.90
52895;DHT22;38759;53.396;6.722;2024-01-30T08:37:39;6.90;99.90
52895;DHT22;38759;53.396;6.722;2024-01-30T08:40:05;6.90;99.90
52895;DHT22;38759;53.396;6.722;2024-01-30T08:42:31;6.90;99.90
52895;DHT22;38759;53.396;6.722;2024-01-30T08:44:57;6.90;99.90
52895;DHT22;38759;53.396;6.722;2024-01-30T08:47:22;6.90;99.90
52895;DHT22;38759;53.396;6.722;2024-01-30T08:49:48;7.00;99.90
52895;DHT22;38759;53.396;6.722;2024-01-30T08:52:14;6.90;99.90
52895;DHT22;38759;53.396;6.722;2024-01-30T08:54:39;6.80;99.90
52895;DHT22;38759;53.396;6.722;2024-01-30T08:57:05;7.00;99.90
52895;DHT22;38759;53.396;6.722;2024-01-30T08:59:31;6.90;99.90
52895;DHT22;38759;53.396;6.722;2024-01-30T09:01:56;7.00;99.90
52895;DHT22;38759;53.396;6.722;2024-01-30T09:04:24;7.00;99.90
52895;DHT22;38759;53.396;6.722;2024-01-30T09:06:49;7.10;99.90
52895;DHT22;38759;53.396;6.722;2024-01-30T09:09:16;7.10;99.90
52895;DHT22;38759;53.396;6.722;2024-01-30T09:11:41;7.20;99.90
52895;DHT22;38759;53.396;6.722;2024-01-30T09:14:07;7.20;99.90
52895;DHT22;38759;53.396;6.722;2024-01-30T09:16:33;7.20;99.90
52895;DHT22;38759;53.396;6.722;2024-01-30T09:18:59;7.30;99.90
52895;DHT22;38759;53.396;6.722;2024-01-30T09:21:25;7.30;99.90
52895;DHT22;38759;53.396;6.722;2024-01-30T09:23:54;7.40;99.90
52895;DHT22;38759;53.396;6.722;2024-01-30T09:26:20;7.50;99.90
52895;DHT22;38759;53.396;6.722;2024-01-30T09:28:45;7.40;99.90
52895;DHT22;38759;53.396;6.722;2024-01-30T09:31:12;7.50;99.90
52895;DHT22;38759;53.396;6.722;2024-01-30T09:33:38;7.70;99.90
52895;DHT22;38759;53.396;6.722;2024-01-30T09:36:05;7.70;99.90
52895;DHT22;38759;53.396;6.722;2024-01-30T09:38:31;7.80;99.90
52895;DHT22;38759;53.396;6.722;2024-01-30T09:41:03;7.90;99.90
52895;DHT22;38759;53.396;6.722;2024-01-30T09:43:33;8.00;99.90
52895;DHT22;38759;53.396;6.722;2024-01-30T09:46:01;8.20;99.90
52895;DHT22;38759;53.396;6.722;2024-01-30T09:48:30;8.30;99.90
52895;DHT22;38759;53.396;6.722;2024-01-30T09:50:57;8.40;99.90
52895;DHT22;38759;53.396;6.722;2024-01-30T09:53:23;8.40;99.90
52895;DHT22;38759;53.396;6.722;2024-01-30T09:55:50;8.50;99.90
52895;DHT22;38759;53.396;6.722;2024-01-30T09:58:19;8.60;99.90
52895;DHT22;38759;53.396;6.722;2024-01-30T10:00:45;8.60;99.90
52895;DHT22;38759;53.396;6.722;2024-01-30T10:03:10;8.60;99.90
52895;DHT22;38759;53.396;6.722;2024-01-30T10:05:36;8.70;99.90
52895;DHT22;38759;53.396;6.722;2024-01-30T10:08:09;8.70;99.90
52895;DHT22;38759;53.396;6.722;2024-01-30T10:10:34;8.70;99.90
52895;DHT22;38759;53.396;6.722;2024-01-30T10:13:01;8.80;99.90
52895;DHT22;38759;53.396;6.722;2024-01-30T10:15:28;9.00;99.90
52895;DHT22;38759;53.396;6.722;2024-01-30T10:17:54;8.90;99.90
52895;DHT22;38759;53.396;6.722;2024-01-30T10:20:20;8.90;99.90
52895;DHT22;38759;53.396;6.722;2024-01-30T10:22:48;8.90;99.90
52895;DHT22;38759;53.396;6.722;2024-01-30T10:25:15;9.00;99.90
52895;DHT22;38759;53.396;6.722;2024-01-30T10:27:41;9.00;99.90
52895;DHT22;38759;53.396;6.722;2024-01-30T10:30:07;9.10;99.90
52895;DHT22;38759;53.396;6.722;2024-01-30T10:32:33;9.10;99.90
52895;DHT22;38759;53.396;6.722;2024-01-30T10:34:59;9.10;99.90
52895;DHT22;38759;53.396;6.722;2024-01-30T10:37:25;9.20;99.90
52895;DHT22;38759;53.396;6.722;2024-01-30T10:39:53;9.20;99.90
52895;DHT22;38759;53.396;6.722;2024-01-30T10:42:21;9.20;99.90
52895;DHT22;38759;53.396;6.722;2024-01-30T10:45:15;9.30;99.90
52895;DHT22;38759;53.396;6.722;2024-01-30T10:47:44;9.30;99.90
52895;DHT22;38759;53.396;6.722;2024-01-30T10:50:12;9.40;99.90
52895;DHT22;38759;53.396;6.722;2024-01-30T10:52:38;9.40;99.90
52895;DHT22;38759;53.396;6.722;2024-01-30T10:55:05;9.60;99.90
52895;DHT22;38759;53.396;6.722;2024-01-30T10:57:37;9.50;99.90
52895;DHT22;38759;53.396;6.722;2024-01-30T11:00:13;9.50;99.90
52895;DHT22;38759;53.396;6.722;2024-01-30T11:02:42;9.60;99.90
52895;DHT22;38759;53.396;6.722;2024-01-30T11:05:09;9.60;99.90
52895;DHT22;38759;53.396;6.722;2024-01-30T11:07:35;9.60;99.90
52895;DHT22;38759;53.396;6.722;2024-01-30T11:10:04;9.60;99.90
52895;DHT22;38759;53.396;6.722;2024-01-30T11:12:32;9.70;99.90
52895;DHT22;38759;53.396;6.722;2024-01-30T11:17:44;9.80;99.90
52895;DHT22;38759;53.396;6.722;2024-01-30T11:20:30;9.80;99.90
52895;DHT22;38759;53.396;6.722;2024-01-30T11:22:57;9.80;99.90
52895;DHT22;38759;53.396;6.722;2024-01-30T11:25:25;9.80;99.90
52895;DHT22;38759;53.396;6.722;2024-01-30T11:27:52;9.80;99.90
52895;DHT22;38759;53.396;6.722;2024-01-30T11:30:25;9.80;99.90
52895;DHT22;38759;53.396;6.722;2024-01-30T11:33:10;9.80;99.90
52895;DHT22;38759;53.396;6.722;2024-01-30T11:35:38;9.80;99.90
52895;DHT22;38759;53.396;6.722;2024-01-30T11:38:05;9.70;99.90
52895;DHT22;38759;53.396;6.722;2024-01-30T11:40:32;9.70;99.90
52895;DHT22;38759;53.396;6.722;2024-01-30T11:43:00;9.70;99.90
52895;DHT22;38759;53.396;6.722;2024-01-30T11:45:27;9.70;99.90
52895;DHT22;38759;53.396;6.722;2024-01-30T11:47:53;9.50;99.90
52895;DHT22;38759;53.396;6.722;2024-01-30T11:50:19;9.60;99.90
52895;DHT22;38759;53.396;6.722;2024-01-30T11:52:45;9.60;99.90
52895;DHT22;38759;53.396;6.722;2024-01-30T11:55:12;9.60;99.90
52895;DHT22;38759;53.396;6.722;2024-01-30T11:57:38;9.50;99.90
52895;DHT22;38759;53.396;6.722;2024-01-30T12:00:05;9.50;99.90
52895;DHT22;38759;53.396;6.722;2024-01-30T12:02:36;9.40;99.90
52895;DHT22;38759;53.396;6.722;2024-01-30T12:05:05;9.30;99.90
52895;DHT22;38759;53.396;6.722;2024-01-30T12:07:32;9.40;99.90
52895;DHT22;38759;53.396;6.722;2024-01-30T12:09:57;9.40;99.90
52895;DHT22;38759;53.396;6.722;2024-01-30T12:12:25;9.40;99.90
52895;DHT22;38759;53.396;6.722;2024-01-30T12:14:51;9.40;99.90
52895;DHT22;38759;53.396;6.722;2024-01-30T12:20:14;9.30;99.90
52895;DHT22;38759;53.396;6.722;2024-01-30T12:22:43;9.30;99.90
52895;DHT22;38759;53.396;6.722;2024-01-30T12:25:11;9.20;99.90
52895;DHT22;38759;53.396;6.722;2024-01-30T12:27:37;9.20;99.90
52895;DHT22;38759;53.396;6.722;2024-01-30T12:30:07;9.20;99.90
52895;DHT22;38759;53.396;6.722;2024-01-30T12:32:39;9.10;99.90
52895;DHT22;38759;53.396;6.722;2024-01-30T12:35:12;9.10;99.90
52895;DHT22;38759;53.396;6.722;2024-01-30T12:37:39;9.10;99.90
52895;DHT22;38759;53.396;6.722;2024-01-30T12:40:08;9.20;99.90
52895;DHT22;38759;53.396;6.722;2024-01-30T12:42:38;9.20;99.90
52895;DHT22;38759;53.396;6.722;2024-01-30T12:45:04;9.20;99.90
52895;DHT22;38759;53.396;6.722;2024-01-30T12:47:30;9.20;99.90
52895;DHT22;38759;53.396;6.722;2024-01-30T12:49:56;9.10;99.90
52895;DHT22;38759;53.396;6.722;2024-01-30T12:52:22;9.00;99.90
52895;DHT22;38759;53.396;6.722;2024-01-30T12:54:49;9.00;99.90
52895;DHT22;38759;53.396;6.722;2024-01-30T12:57:15;9.10;99.90
52895;DHT22;38759;53.396;6.722;2024-01-30T12:59:42;9.00;99.90
52895;DHT22;38759;53.396;6.722;2024-01-30T13:02:08;9.00;99.90
52895;DHT22;38759;53.396;6.722;2024-01-30T13:04:34;8.90;99.90
52895;DHT22;38759;53.396;6.722;2024-01-30T13:07:00;8.90;99.90
52895;DHT22;38759;53.396;6.722;2024-01-30T13:09:26;9.00;99.90
52895;DHT22;38759;53.396;6.722;2024-01-30T13:11:52;9.00;99.90
52895;DHT22;38759;53.396;6.722;2024-01-30T13:14:18;9.00;99.90
52895;DHT22;38759;53.396;6.722;2024-01-30T13:16:45;9.00;99.90
52895;DHT22;38759;53.396;6.722;2024-01-30T13:19:11;8.90;99.90
52895;DHT22;38759;53.396;6.722;2024-01-30T13:21:36;9.00;99.90
52895;DHT22;38759;53.396;6.722;2024-01-30T13:24:03;9.00;99.90
52895;DHT22;38759;53.396;6.722;2024-01-30T13:26:29;9.00;99.90
52895;DHT22;38759;53.396;6.722;2024-01-30T13:28:56;9.10;99.90
52895;DHT22;38759;53.396;6.722;2024-01-30T13:31:22;9.00;99.90
52895;DHT22;38759;53.396;6.722;2024-01-30T13:33:47;9.00;99.90
52895;DHT22;38759;53.396;6.722;2024-01-30T13:36:14;9.00;99.90
52895;DHT22;38759;53.396;6.722;2024-01-30T13:38:40;9.10;99.90
52895;DHT22;38759;53.396;6.722;2024-01-30T13:41:06;9.00;99.90
52895;DHT22;38759;53.396;6.722;2024-01-30T13:43:31;9.10;99.90
52895;DHT22;38759;53.396;6.722;2024-01-30T13:45:57;9.00;99.90
52895;DHT22;38759;53.396;6.722;2024-01-30T13:48:24;9.10;99.90
52895;DHT22;38759;53.396;6.722;2024-01-30T13:50:49;9.30;99.90
52895;DHT22;38759;53.396;6.722;2024-01-30T13:53:15;9.20;99.90
52895;DHT22;38759;53.396;6.722;2024-01-30T13:55:41;9.10;99.90
52895;DHT22;38759;53.396;6.722;2024-01-30T13:58:07;9.10;99.90
52895;DHT22;38759;53.396;6.722;2024-01-30T14:00:33;9.00;99.90
52895;DHT22;38759;53.396;6.722;2024-01-30T14:02:59;8.90;99.90
52895;DHT22;38759;53.396;6.722;2024-01-30T14:05:26;8.80;99.90
52895;DHT22;38759;53.396;6.722;2024-01-30T14:07:53;8.80;99.90
52895;DHT22;38759;53.396;6.722;2024-01-30T14:10:18;8.80;99.90
52895;DHT22;38759;53.396;6.722;2024-01-30T14:12:44;8.70;99.90
52895;DHT22;38759;53.396;6.722;2024-01-30T14:15:10;8.70;99.90
52895;DHT22;38759;53.396;6.722;2024-01-30T14:17:36;8.70;99.90
52895;DHT22;38759;53.396;6.722;2024-01-30T14:20:03;8.70;99.90
52895;DHT22;38759;53.396;6.722;2024-01-30T14:22:30;8.70;99.90
52895;DHT22;38759;53.396;6.722;2024-01-30T14:24:55;8.70;99.90
52895;DHT22;38759;53.396;6.722;2024-01-30T14:27:22;8.70;99.90
52895;DHT22;38759;53.396;6.722;2024-01-30T14:29:47;8.70;99.90
52895;DHT22;38759;53.396;6.722;2024-01-30T14:32:13;8.70;99.90
52895;DHT22;38759;53.396;6.722;2024-01-30T14:34:39;8.70;99.90
52895;DHT22;38759;53.396;6.722;2024-01-30T14:37:05;8.60;99.90
52895;DHT22;38759;53.396;6.722;2024-01-30T14:39:30;8.70;99.90
52895;DHT22;38759;53.396;6.722;2024-01-30T14:41:57;8.70;99.90
52895;DHT22;38759;53.396;6.722;2024-01-30T14:44:22;8.70;99.90
52895;DHT22;38759;53.396;6.722;2024-01-30T14:46:48;8.70;99.90
52895;DHT22;38759;53.396;6.722;2024-01-30T14:49:14;8.60;99.90
52895;DHT22;38759;53.396;6.722;2024-01-30T14:51:41;8.60;99.90
52895;DHT22;38759;53.396;6.722;2024-01-30T14:54:07;8.60;99.90
52895;DHT22;38759;53.396;6.722;2024-01-30T14:56:33;8.50;99.90
52895;DHT22;38759;53.396;6.722;2024-01-30T14:58:59;8.50;99.90
52895;DHT22;38759;53.396;6.722;2024-01-30T15:01:24;8.40;99.90
52895;DHT22;38759;53.396;6.722;2024-01-30T15:03:50;8.40;99.90
52895;DHT22;38759;53.396;6.722;2024-01-30T15:06:20;8.30;99.90
52895;DHT22;38759;53.396;6.722;2024-01-30T15:08:49;8.30;99.90
52895;DHT22;38759;53.396;6.722;2024-01-30T15:11:15;8.30;99.90
52895;DHT22;38759;53.396;6.722;2024-01-30T15:13:44;8.20;99.90
52895;DHT22;38759;53.396;6.722;2024-01-30T15:16:09;8.20;99.90
52895;DHT22;38759;53.396;6.722;2024-01-30T15:18:35;8.20;99.90
52895;DHT22;38759;53.396;6.722;2024-01-30T15:21:01;8.10;99.90
52895;DHT22;38759;53.396;6.722;2024-01-30T15:23:27;8.10;99.90
52895;DHT22;38759;53.396;6.722;2024-01-30T15:25:53;8.10;99.90
52895;DHT22;38759;53.396;6.722;2024-01-30T15:28:18;8.10;99.90
52895;DHT22;38759;53.396;6.722;2024-01-30T15:30:44;8.10;99.90
52895;DHT22;38759;53.396;6.722;2024-01-30T15:33:10;8.10;99.90
52895;DHT22;38759;53.396;6.722;2024-01-30T15:35:36;8.00;99.90
52895;DHT22;38759;53.396;6.722;2024-01-30T15:38:06;8.00;99.90
52895;DHT22;38759;53.396;6.722;2024-01-30T15:40:34;8.10;99.90
52895;DHT22;38759;53.396;6.722;2024-01-30T15:43:00;8.00;99.90
52895;DHT22;38759;53.396;6.722;2024-01-30T15:45:26;8.10;99.90